createdAt,value
2018-04-16T01:00:27.451Z,100917.34
2018-04-16T01:03:00.569Z,100916.02
2018-04-16T01:14:11.852Z,100925.17
2018-04-16T01:16:45.043Z,100929.05
2018-04-16T01:19:18.208Z,100921.58
2018-04-16T01:21:51.413Z,100926.34
2018-04-16T01:32:37.940Z,100928.98
2018-04-16T01:35:11.084Z,100933.92
2018-04-16T01:37:44.065Z,100935.34
2018-04-16T01:51:23.768Z,100962.55
2018-04-16T01:53:56.958Z,100964.41
2018-04-16T01:56:30.932Z,100965.36
2018-04-16T02:07:49.486Z,100965.77
2018-04-16T02:10:22.475Z,100959.60
2018-04-16T02:12:55.639Z,100964.28
2018-04-16T02:15:30.495Z,100957.29
2018-04-16T02:23:48.895Z,100969.08
2018-04-16T02:26:22.097Z,100964.86
2018-04-16T02:28:55.340Z,100967.14
2018-04-16T02:31:28.467Z,100965.09
2018-04-16T02:42:25.291Z,100978.23
2018-04-16T02:44:58.512Z,100977.08
2018-04-16T02:47:31.529Z,100977.64
2018-04-16T02:58:48.907Z,100976.05
2018-04-16T03:01:22.060Z,100980.13
2018-04-16T03:03:55.238Z,100977.67
2018-04-16T03:18:49.054Z,100993.04
2018-04-16T03:21:21.983Z,100990.59
2018-04-16T03:37:30.399Z,101018.23
2018-04-16T03:40:03.551Z,101020.97
2018-04-16T03:51:09.127Z,101035.00
2018-04-16T03:53:37.486Z,101031.16
2018-04-16T03:56:04.982Z,101035.17
2018-04-16T04:10:44.403Z,101042.44
2018-04-16T04:13:11.891Z,101042.05
2018-04-16T04:15:39.397Z,101043.86
2018-04-16T04:26:56.018Z,101061.50
2018-04-16T04:29:35.346Z,101051.63
2018-04-16T04:32:02.872Z,101055.61
2018-04-16T04:46:17.658Z,101065.85
2018-04-16T04:48:45.170Z,101065.02
2018-04-16T04:51:12.668Z,101064.64
2018-04-16T05:02:20.558Z,101067.48
2018-04-16T05:04:48.078Z,101066.19
2018-04-16T05:07:15.558Z,101066.61
2018-04-16T05:18:20.997Z,101084.17
2018-04-16T05:20:48.487Z,101080.23
2018-04-16T05:23:15.987Z,101079.69
2018-04-16T05:25:43.492Z,101081.34
2018-04-16T05:36:49.413Z,101095.25
2018-04-16T05:39:16.890Z,101098.63
2018-04-16T05:41:44.389Z,101098.54
2018-04-16T05:53:09.921Z,101129.66
2018-04-16T05:55:37.434Z,101128.82
2018-04-16T05:58:04.962Z,101133.61
2018-04-16T06:00:32.488Z,101132.78
2018-04-16T06:11:38.638Z,101147.02
2018-04-16T06:14:06.106Z,101144.85
2018-04-16T06:16:33.637Z,101149.60
2018-04-16T06:27:42.377Z,101166.43
2018-04-16T06:30:09.892Z,101175.41
2018-04-16T06:32:37.373Z,101176.20
2018-04-16T06:35:04.910Z,101180.85
2018-04-16T06:46:43.314Z,101182.77
2018-04-16T06:49:10.809Z,101187.66
2018-04-16T06:51:38.299Z,101189.95
2018-04-16T07:02:23.889Z,101201.39
2018-04-16T07:04:51.399Z,101205.46
2018-04-16T07:07:18.898Z,101210.87
2018-04-16T07:09:46.464Z,101206.78
2018-04-16T09:23:05.896Z,101243.34
2018-04-16T09:25:33.437Z,101246.64
2018-04-16T09:28:01.032Z,101246.61
2018-04-16T09:38:58.212Z,101256.80
2018-04-16T09:41:25.747Z,101251.84
2018-04-16T09:43:53.275Z,101253.48
2018-04-16T09:46:22.512Z,101255.13
2018-04-16T09:56:47.645Z,101280.42
2018-04-16T09:59:15.214Z,101283.66
2018-04-16T10:01:42.826Z,101287.39
2018-04-16T10:12:46.847Z,101321.75
2018-04-16T10:15:14.484Z,101326.06
2018-04-16T10:17:42.035Z,101326.00
2018-04-16T10:20:09.669Z,101327.89
2018-04-16T10:31:16.266Z,101343.14
2018-04-16T10:33:43.793Z,101337.72
2018-04-16T10:36:11.361Z,101343.75
2018-04-16T10:47:46.884Z,101350.42
2018-04-16T10:50:14.435Z,101344.67
2018-04-16T10:52:42.045Z,101344.16
2018-04-16T10:55:09.633Z,101348.63
2018-04-16T11:06:37.675Z,101343.73
2018-04-16T11:09:06.125Z,101341.72
2018-04-16T11:11:33.724Z,101329.98
2018-04-16T11:23:10.613Z,101322.48
2018-04-16T11:25:38.188Z,101317.88
2018-04-16T11:28:14.449Z,101315.81
2018-04-16T11:39:51.501Z,101308.75
2018-04-16T11:42:19.119Z,101310.95
2018-04-16T11:44:46.736Z,101310.09
2018-04-16T11:56:32.818Z,101296.72
2018-04-16T11:59:00.652Z,101304.88
2018-04-16T12:01:28.440Z,101304.03
2018-04-16T12:13:04.356Z,101302.16
2018-04-16T12:15:32.015Z,101314.22
2018-04-16T12:17:59.976Z,101299.49
2018-04-16T12:20:27.701Z,101304.97
2018-04-16T12:32:03.552Z,101304.91
2018-04-16T12:34:31.221Z,101295.32
2018-04-16T12:36:59.801Z,101303.30
2018-04-16T12:39:33.346Z,101296.39
2018-04-16T12:42:03.339Z,101295.98
2018-04-16T12:47:07.065Z,101300.64
2018-04-16T12:49:34.729Z,101296.22
2018-04-16T12:52:02.274Z,101295.16
2018-04-16T12:54:29.840Z,101291.96
2018-04-16T12:56:59.021Z,101300.23
2018-04-16T12:59:27.732Z,101300.75
2018-04-16T13:01:55.796Z,101301.42
2018-04-16T13:04:23.339Z,101302.13
2018-04-16T13:06:50.861Z,101307.59
2018-04-16T13:09:18.395Z,101311.72
2018-04-16T13:11:46.007Z,101309.48
2018-04-16T13:14:16.352Z,101308.88
2018-04-16T13:16:47.196Z,101307.42
2018-04-16T13:19:18.422Z,101300.81
2018-04-16T13:21:46.011Z,101286.55
2018-04-16T13:24:13.568Z,101294.53
2018-04-16T13:26:41.101Z,101303.72
2018-04-16T13:29:08.699Z,101299.11
2018-04-16T13:31:39.324Z,101309.44
2018-04-16T13:34:10.455Z,101306.24
2018-04-16T13:36:43.067Z,101302.99
2018-04-16T13:39:10.611Z,101302.42
2018-04-16T13:41:38.190Z,101302.44
2018-04-16T13:44:05.758Z,101304.32
2018-04-16T13:46:47.171Z,101305.14
2018-04-16T13:57:01.188Z,101302.09
2018-04-16T13:59:28.823Z,101293.70
2018-04-16T14:01:56.345Z,101304.13
2018-04-16T14:14:51.864Z,101320.44
2018-04-16T14:17:19.393Z,101319.62
2018-04-16T14:19:46.987Z,101320.69
2018-04-16T14:22:23.760Z,101317.28
2018-04-16T14:30:32.938Z,101311.33
2018-04-16T14:33:00.501Z,101317.34
2018-04-16T14:35:28.084Z,101312.89
2018-04-16T14:37:55.628Z,101310.41
2018-04-16T14:40:26.894Z,101300.52
2018-04-16T14:42:56.363Z,101306.47
2018-04-16T14:45:28.838Z,101314.47
2018-04-16T14:47:57.107Z,101313.03
2018-04-16T14:50:24.628Z,101305.76
2018-04-16T14:52:52.265Z,101308.15
2018-04-16T14:55:19.883Z,101306.34
2018-04-16T14:57:50.580Z,101303.57
2018-04-16T15:00:22.979Z,101304.69
2018-04-16T15:05:27.771Z,101320.58
2018-04-16T15:07:55.351Z,101319.61
2018-04-16T15:10:22.902Z,101313.69
2018-04-16T15:12:50.604Z,101305.40
2018-04-16T15:17:59.641Z,101288.55
2018-04-16T15:23:10.833Z,101307.14
2018-04-16T15:25:38.394Z,101301.25
2018-04-16T15:28:05.957Z,101301.95
2018-04-16T15:39:14.860Z,101306.77
2018-04-16T15:41:42.418Z,101313.83
2018-04-16T15:44:09.961Z,101301.02
2018-04-16T15:46:37.559Z,101311.41
2018-04-16T15:58:14.743Z,101290.77
2018-04-16T16:00:42.355Z,101284.30
2018-04-16T16:03:09.949Z,101290.73
2018-04-16T16:14:43.439Z,101303.42
2018-04-16T16:17:11.032Z,101292.11
2018-04-16T16:19:38.573Z,101295.12
2018-04-16T16:22:15.271Z,101299.64
2018-04-16T16:24:47.068Z,101304.21
2018-04-16T16:29:58.771Z,101298.17
2018-04-16T16:32:26.352Z,101313.72
2018-04-16T16:34:53.937Z,101305.16
2018-04-16T16:37:21.474Z,101314.94
2018-04-16T16:48:08.053Z,101318.27
2018-04-16T16:50:35.624Z,101321.90
2018-04-16T16:53:03.199Z,101322.03
2018-04-16T16:55:30.912Z,101323.50
2018-04-16T17:06:50.009Z,101319.39
2018-04-16T17:09:17.583Z,101315.23
2018-04-16T17:11:45.189Z,101313.16
2018-04-16T17:23:11.423Z,101313.55
2018-04-16T17:25:39.108Z,101315.77
2018-04-16T17:28:06.631Z,101314.65
2018-04-16T17:39:42.806Z,101304.41
2018-04-16T17:42:10.407Z,101299.63
2018-04-16T17:44:38.041Z,101302.65
2018-04-16T17:47:05.604Z,101301.92
2018-04-16T17:58:31.619Z,101299.17
2018-04-16T18:00:59.188Z,101295.70
2018-04-16T18:03:26.793Z,101306.17
2018-04-16T18:15:02.914Z,101312.84
2018-04-16T18:17:30.483Z,101300.80
2018-04-16T18:19:58.072Z,101297.84
2018-04-16T18:28:24.526Z,101299.03
2018-04-16T18:30:53.738Z,101307.06
2018-04-16T18:33:21.228Z,101307.58
2018-04-16T18:35:48.713Z,101316.40
2018-04-16T18:38:16.210Z,101317.73
2018-04-16T18:40:44.130Z,101316.49
2018-04-16T18:43:14.886Z,101323.55
2018-04-16T18:45:47.750Z,101321.45
2018-04-16T18:48:15.241Z,101327.26
2018-04-16T18:50:42.715Z,101322.59
2018-04-16T18:53:10.207Z,101318.30
2018-04-16T18:55:37.718Z,101324.08
2018-04-16T18:58:07.300Z,101320.62
2018-04-16T19:00:35.685Z,101314.93
2018-04-16T19:03:04.224Z,101320.67
2018-04-16T19:05:31.710Z,101328.16
2018-04-16T19:07:59.214Z,101334.02
2018-04-16T19:10:27.667Z,101330.53
2018-04-16T19:12:55.151Z,101336.21
2018-04-16T19:15:27.336Z,101340.25
2018-04-16T19:17:59.534Z,101335.50
2018-04-16T19:20:35.048Z,101335.50
2018-04-16T19:23:03.281Z,101339.09
2018-04-16T19:25:30.802Z,101345.66
2018-04-16T19:28:03.923Z,101351.43
2018-04-16T19:30:31.406Z,101361.92
2018-04-16T19:33:07.211Z,101369.36
2018-04-16T19:35:40.087Z,101368.94
2018-04-16T19:38:08.047Z,101360.64
2018-04-16T19:40:35.550Z,101363.28
2018-04-16T19:43:03.075Z,101363.28
2018-04-16T19:45:30.562Z,101361.20
2018-04-16T19:47:58.043Z,101362.52
2018-04-16T19:50:26.406Z,101358.66
2018-04-16T19:52:56.315Z,101357.83
2018-04-16T19:55:28.233Z,101361.30
2018-04-16T19:58:01.301Z,101359.99
2018-04-16T20:00:28.806Z,101365.65
2018-04-16T20:03:01.891Z,101366.58
2018-04-16T20:05:29.385Z,101369.20
2018-04-16T20:07:58.631Z,101368.29
2018-04-16T20:10:27.395Z,101358.71
2018-04-16T20:12:56.455Z,101366.22
2018-04-16T20:15:23.945Z,101360.59
2018-04-16T20:17:51.439Z,101358.40
2018-04-16T20:20:18.947Z,101358.38
2018-04-16T20:22:46.422Z,101360.98
2018-04-16T20:25:16.494Z,101358.80
2018-04-16T20:27:43.996Z,101374.97
2018-04-16T20:30:11.911Z,101363.66
2018-04-16T20:32:39.449Z,101356.23
2018-04-16T20:35:06.946Z,101353.20
2018-04-16T20:37:34.453Z,101324.53
2018-04-16T20:40:01.931Z,101312.76
2018-04-16T20:42:31.180Z,101335.35
2018-04-16T20:44:59.681Z,101337.52
2018-04-16T20:47:27.846Z,101338.39
2018-04-16T20:49:55.326Z,101332.28
2018-04-16T20:52:22.830Z,101316.16
2018-04-16T20:54:50.339Z,101304.83
2018-04-16T20:57:37.973Z,101284.86
2018-04-16T21:00:06.626Z,101287.05
2018-04-16T21:02:34.654Z,101293.61
2018-04-16T21:05:03.062Z,101314.49
2018-04-16T21:07:30.542Z,101315.83
2018-04-16T21:09:58.059Z,101311.91
2018-04-16T21:12:25.544Z,101300.14
2018-04-16T21:14:53.028Z,101304.97
2018-04-16T21:17:20.603Z,101300.14
2018-04-16T21:19:52.130Z,101292.30
2018-04-16T21:22:20.377Z,101287.52
2018-04-16T21:24:47.866Z,101299.69
2018-04-16T21:27:15.374Z,101298.37
2018-04-16T21:29:42.863Z,101293.58
2018-04-16T21:32:10.368Z,101280.50
2018-04-16T21:34:40.423Z,101289.20
2018-04-16T21:37:07.934Z,101270.93
2018-04-16T21:39:39.438Z,101273.09
2018-04-16T21:42:07.797Z,101268.28
2018-04-16T21:44:35.301Z,101265.67
2018-04-16T21:47:02.861Z,101277.47
2018-04-16T21:49:30.353Z,101264.84
2018-04-16T21:54:34.539Z,101269.62
2018-04-16T21:57:04.230Z,101265.70
2018-04-16T21:59:31.725Z,101269.62
2018-04-16T22:01:59.205Z,101277.49
2018-04-16T22:04:27.613Z,101272.27
2018-04-16T22:06:55.114Z,101271.81
2018-04-16T22:09:24.079Z,101273.11
2018-04-16T22:11:54.630Z,101265.27
2018-04-16T22:14:26.274Z,101261.80
2018-04-16T22:16:53.762Z,101268.34
2018-04-16T22:19:21.262Z,101262.20
2018-04-16T22:21:48.735Z,101270.47
2018-04-16T22:24:16.225Z,101278.31
2018-04-16T22:26:44.190Z,101278.25
2018-04-16T22:29:14.452Z,101276.95
2018-04-16T22:31:44.436Z,101273.87
2018-04-16T22:34:12.058Z,101275.61
2018-04-16T22:36:40.567Z,101289.97
2018-04-16T22:39:08.083Z,101300.39
2018-04-16T22:41:35.571Z,101297.69
2018-04-16T22:44:06.427Z,101291.92
2018-04-16T22:46:36.378Z,101300.19
2018-04-16T22:49:06.710Z,101284.89
2018-04-16T22:51:34.202Z,101289.67
2018-04-16T22:54:01.682Z,101265.65
2018-04-16T22:56:29.169Z,101274.37
2018-04-16T22:58:56.643Z,101286.51
2018-04-16T23:01:24.150Z,101284.77
2018-04-16T23:03:51.879Z,101281.28
2018-04-16T23:06:20.619Z,101272.98
2018-04-16T23:08:50.917Z,101270.30
2018-04-16T23:11:18.422Z,101261.97
2018-04-16T23:13:45.898Z,101254.98
2018-04-16T23:16:13.401Z,101245.83
2018-04-16T23:18:43.490Z,101253.70
2018-04-16T23:21:12.542Z,101242.39
2018-04-16T23:23:40.028Z,101236.31
2018-04-16T23:26:07.524Z,101247.70
2018-04-16T23:28:35.026Z,101247.31
2018-04-16T23:31:02.526Z,101260.39
2018-04-16T23:33:30.010Z,101264.31
2018-04-16T23:35:59.263Z,101275.74
2018-04-16T23:38:31.327Z,101279.66
2018-04-16T23:41:04.222Z,101262.61
2018-04-16T23:43:31.701Z,101247.34
2018-04-16T23:45:59.213Z,101268.23
2018-04-16T23:48:26.720Z,101277.36
2018-04-16T23:50:54.212Z,101278.66
2018-04-16T23:53:24.075Z,101282.95
2018-04-16T23:55:52.611Z,101261.58
2018-04-16T23:58:20.203Z,101263.28
